createdAt,value
2019-03-12T00:00:13.633Z,0.40
2019-03-12T00:02:42.281Z,0.60
2019-03-12T00:05:10.970Z,1.12
2019-03-12T00:07:39.625Z,0.70
2019-03-12T00:10:09.320Z,1.37
2019-03-12T00:12:37.982Z,1.20
2019-03-12T00:15:07.442Z,1.10
2019-03-12T00:17:36.139Z,0.82
2019-03-12T00:20:06.373Z,0.88
2019-03-12T00:22:35.063Z,0.85
2019-03-12T00:25:03.716Z,0.65
2019-03-12T00:27:32.423Z,0.37
2019-03-12T00:30:01.059Z,2.75
2019-03-12T00:32:29.712Z,0.40
2019-03-12T00:34:58.382Z,0.72
2019-03-12T00:37:27.022Z,1.07
2019-03-12T00:39:55.698Z,1.35
2019-03-12T00:42:24.346Z,1.80
2019-03-12T00:44:53.053Z,3.37
2019-03-12T00:47:21.686Z,2.02
2019-03-12T00:49:50.327Z,0.62
2019-03-12T00:52:19.001Z,2.90
2019-03-12T00:54:47.641Z,0.78
2019-03-12T00:57:16.341Z,0.60
2019-03-12T00:59:44.974Z,1.22
2019-03-12T01:02:13.601Z,1.15
2019-03-12T01:04:42.273Z,0.70
2019-03-12T01:07:10.923Z,2.72
2019-03-12T01:09:39.588Z,0.35
2019-03-12T01:12:08.163Z,0.37
2019-03-12T01:14:36.854Z,1.22
2019-03-12T01:17:05.505Z,1.15
2019-03-12T01:19:34.123Z,1.45
2019-03-12T01:22:02.801Z,1.07
2019-03-12T01:24:31.449Z,0.85
2019-03-12T01:27:00.091Z,1.10
2019-03-12T01:29:28.757Z,0.98
2019-03-12T01:31:57.389Z,0.62
2019-03-12T01:34:26.080Z,1.17
2019-03-12T01:36:54.720Z,1.22
2019-03-12T01:39:23.357Z,1.02
2019-03-12T01:41:52.040Z,1.82
2019-03-12T01:44:20.670Z,1.15
2019-03-12T01:46:49.350Z,1.10
2019-03-12T01:49:17.982Z,2.17
2019-03-12T01:51:46.623Z,0.98
2019-03-12T01:54:15.304Z,0.95
2019-03-12T01:56:43.931Z,1.00
2019-03-12T01:59:12.625Z,0.90
2019-03-12T02:01:41.261Z,1.12
2019-03-12T02:04:09.898Z,1.70
2019-03-12T02:06:38.574Z,1.22
2019-03-12T02:09:08.313Z,2.45
2019-03-12T02:11:37.043Z,1.45
2019-03-12T02:14:23.410Z,1.12
2019-03-12T02:16:52.101Z,2.50
2019-03-12T02:19:20.738Z,1.30
2019-03-12T02:21:49.392Z,1.72
2019-03-12T02:24:18.067Z,2.12
2019-03-12T02:26:46.716Z,3.27
2019-03-12T02:29:15.410Z,3.17
2019-03-12T02:31:44.070Z,1.32
2019-03-12T02:34:12.706Z,3.25
2019-03-12T02:36:41.386Z,0.75
2019-03-12T02:39:10.031Z,1.77
2019-03-12T02:41:38.731Z,1.05
2019-03-12T02:44:07.368Z,1.30
2019-03-12T02:46:36.479Z,3.25
2019-03-12T02:49:09.029Z,2.12
2019-03-12T02:51:35.552Z,1.72
2019-03-12T02:54:04.268Z,2.05
2019-03-12T02:56:32.895Z,3.40
2019-03-12T02:59:01.527Z,2.37
2019-03-12T03:01:30.220Z,1.62
2019-03-12T03:03:58.865Z,2.15
2019-03-12T03:06:29.123Z,2.17
2019-03-12T03:08:57.771Z,3.22
2019-03-12T03:11:26.422Z,2.65
2019-03-12T03:13:55.105Z,1.72
2019-03-12T03:16:24.396Z,1.67
2019-03-12T03:18:53.638Z,1.67
2019-03-12T03:21:22.267Z,1.77
2019-03-12T03:23:51.001Z,1.62
2019-03-12T03:26:19.653Z,2.20
2019-03-12T03:28:48.292Z,2.85
2019-03-12T03:31:16.996Z,4.78
2019-03-12T03:33:45.552Z,2.77
2019-03-12T03:36:14.236Z,1.55
2019-03-12T03:38:42.880Z,2.27
2019-03-12T03:41:11.543Z,1.80
2019-03-12T03:43:40.199Z,1.67
2019-03-12T03:46:08.853Z,1.50
2019-03-12T03:48:37.553Z,1.15
2019-03-12T03:51:06.200Z,2.12
2019-03-12T03:53:34.872Z,1.52
2019-03-12T03:56:03.552Z,1.42
2019-03-12T03:58:32.197Z,1.60
2019-03-12T04:01:00.918Z,1.37
2019-03-12T04:03:29.558Z,2.58
2019-03-12T04:05:58.198Z,2.47
2019-03-12T04:08:26.891Z,2.80
2019-03-12T04:10:55.554Z,7.28
2019-03-12T04:13:24.245Z,2.15
2019-03-12T04:15:52.893Z,2.70
2019-03-12T04:18:21.522Z,2.20
2019-03-12T04:20:50.208Z,1.32
2019-03-12T04:23:18.868Z,1.60
2019-03-12T04:25:47.560Z,3.30
2019-03-12T04:28:16.206Z,2.15
2019-03-12T04:30:44.838Z,2.17
2019-03-12T04:33:51.685Z,2.17
2019-03-12T04:36:20.402Z,3.58
2019-03-12T04:38:49.045Z,4.35
2019-03-12T04:41:17.701Z,3.50
2019-03-12T04:43:46.408Z,1.55
2019-03-12T04:46:15.042Z,1.62
2019-03-12T04:48:44.479Z,3.08
2019-03-12T04:51:13.156Z,1.80
2019-03-12T04:53:41.789Z,2.42
2019-03-12T04:56:10.490Z,2.50
2019-03-12T04:58:39.140Z,4.15
2019-03-12T05:01:07.835Z,2.45
2019-03-12T05:03:36.494Z,4.62
2019-03-12T05:06:05.139Z,2.62
2019-03-12T05:08:33.798Z,4.05
2019-03-12T05:11:02.453Z,2.10
2019-03-12T05:13:31.169Z,4.28
2019-03-12T05:15:59.803Z,4.12
2019-03-12T05:18:28.455Z,5.58
2019-03-12T05:20:57.123Z,2.80
2019-03-12T05:23:25.753Z,3.47
2019-03-12T05:25:54.433Z,2.22
2019-03-12T05:28:23.074Z,3.85
2019-03-12T05:30:51.716Z,3.12
2019-03-12T05:33:20.387Z,9.55
2019-03-12T05:35:49.037Z,4.20
2019-03-12T05:38:17.674Z,4.47
2019-03-12T05:40:46.368Z,3.27
2019-03-12T05:43:15.032Z,7.62
2019-03-12T05:45:43.730Z,2.10
2019-03-12T05:48:12.390Z,7.58
2019-03-12T05:50:41.018Z,2.12
2019-03-12T05:53:14.690Z,2.72
2019-03-12T05:55:43.327Z,4.00
2019-03-12T05:58:11.986Z,4.30
2019-03-12T06:00:40.677Z,1.95
2019-03-12T06:03:09.309Z,1.92
2019-03-12T06:05:37.977Z,3.77
2019-03-12T06:08:06.625Z,6.62
2019-03-12T06:10:35.276Z,7.33
2019-03-12T06:13:03.970Z,8.68
2019-03-12T06:15:32.605Z,6.50
2019-03-12T06:18:01.305Z,5.37
2019-03-12T06:20:29.937Z,4.85
2019-03-12T06:22:58.605Z,5.17
2019-03-12T06:25:27.316Z,3.17
2019-03-12T06:27:55.963Z,3.45
2019-03-12T06:30:25.833Z,6.30
2019-03-12T06:33:02.405Z,8.73
2019-03-12T06:35:44.649Z,5.92
2019-03-12T06:38:17.738Z,4.83
2019-03-12T06:40:56.914Z,5.60
2019-03-12T06:43:39.168Z,10.28
2019-03-12T06:49:02.876Z,9.63
2019-03-12T06:51:33.154Z,10.35
2019-03-12T06:54:21.656Z,5.67
2019-03-12T06:57:00.982Z,9.95
2019-03-12T06:59:31.191Z,4.90
2019-03-12T07:02:01.429Z,7.60
2019-03-12T07:04:31.685Z,4.97
2019-03-12T07:07:01.971Z,4.50
2019-03-12T07:09:32.278Z,7.75
2019-03-12T07:12:05.513Z,5.35
2019-03-12T07:14:38.493Z,7.05
2019-03-12T07:17:11.439Z,3.22
2019-03-12T07:19:44.472Z,4.20
2019-03-12T07:22:20.665Z,5.08
2019-03-12T07:25:07.173Z,4.65
2019-03-12T07:27:40.403Z,2.08
2019-03-12T07:30:13.144Z,2.37
2019-03-12T07:33:01.623Z,1.47
2019-03-12T07:35:31.826Z,3.62
2019-03-12T07:38:02.015Z,2.50
2019-03-12T07:40:41.349Z,2.27
2019-03-12T07:43:11.574Z,3.20
2019-03-12T07:45:50.849Z,3.40
2019-03-12T07:48:27.004Z,1.30
2019-03-12T07:51:00.423Z,1.57
2019-03-12T07:53:58.663Z,1.72
2019-03-12T07:56:26.547Z,2.25
2019-03-12T07:59:09.183Z,3.92
2019-03-12T08:01:45.400Z,2.47
2019-03-12T08:04:30.591Z,3.00
2019-03-12T08:07:09.635Z,2.27
2019-03-12T08:09:42.686Z,3.27
2019-03-12T08:12:29.171Z,3.60
2019-03-12T08:15:02.170Z,1.62
2019-03-12T08:17:38.417Z,3.47
2019-03-12T08:20:13.114Z,5.83
2019-03-12T08:22:43.403Z,0.75
2019-03-12T08:25:16.588Z,1.20
2019-03-12T08:27:46.852Z,3.85
2019-03-12T08:30:29.059Z,1.52
2019-03-12T08:32:59.439Z,3.00
2019-03-12T08:35:38.533Z,0.60
2019-03-12T08:38:14.633Z,2.30
2019-03-12T08:40:56.995Z,1.17
2019-03-12T08:43:33.216Z,3.67
2019-03-12T08:46:22.346Z,2.10
2019-03-12T08:49:05.052Z,1.92
2019-03-12T08:51:41.195Z,0.75
2019-03-12T08:54:26.479Z,4.17
2019-03-12T08:56:56.730Z,3.58
2019-03-12T08:59:32.735Z,3.67
2019-03-12T09:02:05.784Z,3.72
2019-03-12T09:04:36.030Z,2.15
2019-03-12T09:07:15.213Z,2.12
2019-03-12T09:09:48.482Z,1.42
2019-03-12T09:12:18.693Z,1.17
2019-03-12T09:14:51.739Z,2.42
2019-03-12T09:17:31.275Z,7.35
2019-03-12T09:20:17.655Z,6.58
2019-03-12T09:22:47.871Z,2.67
2019-03-12T09:25:33.437Z,4.42
2019-03-12T09:28:06.146Z,0.95
2019-03-12T09:30:48.489Z,2.45
2019-03-12T09:33:34.135Z,2.08
2019-03-12T09:36:04.421Z,3.85
2019-03-12T09:38:40.358Z,2.27
2019-03-12T09:41:16.404Z,1.55
2019-03-12T09:43:55.389Z,0.65
2019-03-12T09:46:37.870Z,0.42
2019-03-12T09:49:08.091Z,1.75
2019-03-12T09:51:38.305Z,1.55
2019-03-12T09:54:08.547Z,1.07
2019-03-12T09:56:41.766Z,1.47
2019-03-12T09:59:23.901Z,0.68
2019-03-12T10:02:10.369Z,1.35
2019-03-12T10:04:52.608Z,1.52
2019-03-12T10:07:31.976Z,1.27
2019-03-12T10:10:02.173Z,1.30
2019-03-12T10:12:35.547Z,1.02
2019-03-12T10:15:07.761Z,2.10
2019-03-12T10:17:46.784Z,1.35
2019-03-12T10:20:17.003Z,0.42
2019-03-12T10:22:53.287Z,1.82
2019-03-12T10:25:39.940Z,0.90
2019-03-12T10:28:10.174Z,0.90
2019-03-12T10:30:40.387Z,1.02
2019-03-12T10:33:16.674Z,1.05
2019-03-12T10:36:01.969Z,2.05
2019-03-12T10:39:14.395Z,2.85
2019-03-12T10:41:44.611Z,2.30
2019-03-12T10:44:14.863Z,1.17
2019-03-12T10:46:48.077Z,0.60
2019-03-12T10:49:16.793Z,1.47
2019-03-12T10:51:45.444Z,1.05
2019-03-12T10:54:14.093Z,2.65
2019-03-12T10:56:44.975Z,2.27
2019-03-12T10:59:13.691Z,0.75
2019-03-12T11:01:42.375Z,1.60
2019-03-12T11:04:11.006Z,1.60
2019-03-12T11:06:39.666Z,1.00
2019-03-12T11:09:08.347Z,2.80
2019-03-12T11:11:36.979Z,1.15
2019-03-12T11:14:05.654Z,3.80
2019-03-12T11:16:34.303Z,2.30
2019-03-12T11:19:02.945Z,1.37
2019-03-12T11:21:31.624Z,1.77
2019-03-12T11:24:00.271Z,1.98
2019-03-12T11:26:28.980Z,1.62
2019-03-12T11:28:57.629Z,2.00
2019-03-12T11:31:26.278Z,4.17
2019-03-12T11:33:54.946Z,3.33
2019-03-12T11:36:23.607Z,1.15
2019-03-12T11:38:52.285Z,1.92
2019-03-12T11:41:20.977Z,2.55
2019-03-12T11:43:49.563Z,3.77
2019-03-12T11:46:18.241Z,2.87
2019-03-12T11:48:46.888Z,1.85
2019-03-12T11:51:15.575Z,2.27
2019-03-12T11:53:44.209Z,1.12
2019-03-12T11:56:12.855Z,1.62
2019-03-12T11:58:41.515Z,0.88
2019-03-12T12:01:10.154Z,1.30
2019-03-12T12:03:38.847Z,1.10
2019-03-12T12:06:07.497Z,1.05
2019-03-12T12:08:36.138Z,1.60
2019-03-12T12:11:04.816Z,2.25
2019-03-12T12:13:33.451Z,4.28
2019-03-12T12:16:02.159Z,4.85
2019-03-12T12:18:30.789Z,3.42
2019-03-12T12:20:59.439Z,8.55
2019-03-12T12:23:28.131Z,2.22
2019-03-12T12:25:56.789Z,1.92
2019-03-12T12:28:25.464Z,1.95
2019-03-12T12:30:54.109Z,2.10
2019-03-12T12:33:22.808Z,2.25
2019-03-12T12:35:51.471Z,3.20
2019-03-12T12:38:20.112Z,1.62
2019-03-12T12:40:48.802Z,3.92
2019-03-12T12:43:17.461Z,3.02
2019-03-12T12:45:46.156Z,4.05
2019-03-12T12:48:14.807Z,5.15
2019-03-12T12:50:43.457Z,2.02
2019-03-12T12:53:12.153Z,2.77
2019-03-12T12:55:40.786Z,3.02
2019-03-12T12:58:09.480Z,3.02
2019-03-12T13:00:38.579Z,5.08
2019-03-12T13:03:07.671Z,3.98
2019-03-12T13:05:36.470Z,4.15
2019-03-12T13:08:05.115Z,3.92
2019-03-12T13:10:34.993Z,4.45
2019-03-12T13:13:03.654Z,3.10
2019-03-12T13:15:32.286Z,2.05
2019-03-12T13:18:00.981Z,2.12
2019-03-12T13:20:29.617Z,4.58
2019-03-12T13:23:02.991Z,1.40
2019-03-12T13:25:31.630Z,3.00
2019-03-12T13:28:00.280Z,4.62
2019-03-12T13:30:28.950Z,1.90
2019-03-12T13:32:57.583Z,0.70
2019-03-12T13:35:26.297Z,1.40
2019-03-12T13:37:54.940Z,1.42
2019-03-12T13:40:24.815Z,4.58
2019-03-12T13:42:53.699Z,4.00
2019-03-12T13:45:26.766Z,2.30
2019-03-12T13:47:56.003Z,4.60
2019-03-12T13:50:24.997Z,5.90
2019-03-12T13:52:53.715Z,2.75
2019-03-12T13:55:22.361Z,1.90
2019-03-12T13:57:51.023Z,4.55
2019-03-12T14:00:27.720Z,1.60
2019-03-12T14:02:56.356Z,2.85
2019-03-12T14:05:24.999Z,2.58
2019-03-12T14:07:53.697Z,5.00
2019-03-12T14:10:23.544Z,2.50
2019-03-12T14:12:53.140Z,2.12
2019-03-12T14:15:33.263Z,3.27
2019-03-12T14:18:01.958Z,2.72
2019-03-12T14:20:47.811Z,4.72
2019-03-12T14:23:28.241Z,2.00
2019-03-12T14:25:56.884Z,2.20
2019-03-12T14:28:25.545Z,1.35
2019-03-12T14:30:54.228Z,3.72
2019-03-12T14:33:22.882Z,6.78
2019-03-12T14:35:52.369Z,0.93
2019-03-12T14:38:21.224Z,3.25
2019-03-12T14:40:49.859Z,5.58
2019-03-12T14:43:18.529Z,3.80
2019-03-12T14:45:54.348Z,4.25
2019-03-12T14:48:44.171Z,4.35
2019-03-12T14:51:18.750Z,2.55
2019-03-12T14:53:50.569Z,2.58
2019-03-12T14:56:19.214Z,5.50
2019-03-12T14:58:51.027Z,4.58
2019-03-12T15:01:18.217Z,5.87
2019-03-12T15:03:46.859Z,3.80
2019-03-12T15:06:15.568Z,2.70
2019-03-12T15:08:44.220Z,3.35
2019-03-12T15:11:12.878Z,4.97
2019-03-12T15:13:41.542Z,6.78
2019-03-12T15:16:10.201Z,3.20
2019-03-12T15:18:38.914Z,4.17
2019-03-12T15:21:07.568Z,5.80
2019-03-12T15:23:36.212Z,6.53
2019-03-12T15:26:04.919Z,4.55
2019-03-12T15:28:33.551Z,2.77
2019-03-12T15:31:02.557Z,5.65
2019-03-12T15:33:31.304Z,10.95
2019-03-12T15:35:59.938Z,5.65
2019-03-12T15:38:28.622Z,4.00
2019-03-12T15:40:57.280Z,3.08
2019-03-12T15:43:26.108Z,5.58
2019-03-12T15:45:54.759Z,2.67
2019-03-12T15:48:23.412Z,2.08
2019-03-12T15:50:52.113Z,2.75
2019-03-12T15:53:20.764Z,1.80
2019-03-12T15:55:49.469Z,1.92
2019-03-12T15:58:18.116Z,5.35
2019-03-12T16:00:46.764Z,1.80
2019-03-12T16:03:15.477Z,6.37
2019-03-12T16:05:44.128Z,7.17
2019-03-12T16:08:12.834Z,5.20
2019-03-12T16:10:41.490Z,3.25
2019-03-12T16:13:10.132Z,6.65
2019-03-12T16:15:38.873Z,5.37
2019-03-12T16:18:07.476Z,3.37
2019-03-12T16:20:36.176Z,1.42
2019-03-12T16:23:04.965Z,8.08
2019-03-12T16:25:33.588Z,4.58
2019-03-12T16:28:02.276Z,3.25
2019-03-12T16:30:31.071Z,5.92
2019-03-12T16:32:59.880Z,5.25
2019-03-12T16:35:28.499Z,4.22
2019-03-12T16:37:57.189Z,3.30
2019-03-12T16:40:25.828Z,3.75
2019-03-12T16:42:54.679Z,9.33
2019-03-12T16:45:23.313Z,5.87
2019-03-12T16:47:52.090Z,6.22
2019-03-12T16:50:20.744Z,3.30
2019-03-12T16:52:49.391Z,6.00
2019-03-12T16:55:18.596Z,5.20
2019-03-12T16:57:47.342Z,9.73
2019-03-12T17:00:20.542Z,7.72
2019-03-12T17:02:49.224Z,9.73
2019-03-12T17:05:18.008Z,9.23
2019-03-12T17:07:47.647Z,7.40
2019-03-12T17:10:18.154Z,7.45
2019-03-12T17:12:46.914Z,13.58
2019-03-12T17:15:22.721Z,11.25
2019-03-12T17:17:51.587Z,11.93
2019-03-12T17:20:20.356Z,12.33
2019-03-12T17:22:49.122Z,6.95
2019-03-12T17:25:17.919Z,7.10
2019-03-12T17:27:46.544Z,5.22
2019-03-12T17:30:21.190Z,4.97
2019-03-12T17:32:50.061Z,5.22
2019-03-12T17:35:35.937Z,4.87
2019-03-12T17:38:04.571Z,6.35
2019-03-12T17:40:33.219Z,6.95
2019-03-12T17:43:01.914Z,16.77
2019-03-12T17:45:30.577Z,13.85
2019-03-12T17:47:59.424Z,6.72
2019-03-12T17:50:28.066Z,15.55
2019-03-12T17:52:56.866Z,10.13
2019-03-12T17:55:25.668Z,21.30
2019-03-12T17:57:54.301Z,10.55
2019-03-12T18:00:28.597Z,13.00
2019-03-12T18:02:57.631Z,15.08
2019-03-12T18:05:26.805Z,18.73
2019-03-12T18:07:55.495Z,8.95
2019-03-12T18:10:24.279Z,8.90
2019-03-12T18:12:52.941Z,5.67
2019-03-12T18:15:22.148Z,9.30
2019-03-12T18:17:50.810Z,13.03
2019-03-12T18:20:21.856Z,9.63
2019-03-12T18:22:50.494Z,12.23
2019-03-12T18:25:25.096Z,5.30
2019-03-12T18:27:53.751Z,10.28
2019-03-12T18:30:22.545Z,8.98
2019-03-12T18:32:51.227Z,5.83
2019-03-12T18:35:20.076Z,9.95
2019-03-12T18:37:48.962Z,13.15
2019-03-12T18:40:22.189Z,11.43
2019-03-12T18:42:51.141Z,13.05
2019-03-12T18:45:31.083Z,9.70
2019-03-12T18:48:00.229Z,17.98
2019-03-12T18:50:29.171Z,12.55
2019-03-12T18:52:57.959Z,11.80
2019-03-12T18:55:32.876Z,11.20
2019-03-12T18:58:02.434Z,11.97
2019-03-12T19:00:31.818Z,6.37
2019-03-12T19:03:00.472Z,8.70
2019-03-12T19:05:29.118Z,11.65
2019-03-12T19:07:57.959Z,12.18
2019-03-12T19:10:26.587Z,12.37
2019-03-12T19:12:55.288Z,10.48
2019-03-12T19:15:23.944Z,9.00
2019-03-12T19:17:52.582Z,9.18
2019-03-12T19:20:21.267Z,10.03
2019-03-12T19:22:49.919Z,9.13
2019-03-12T19:25:38.416Z,9.05
2019-03-12T19:28:06.498Z,9.85
2019-03-12T19:30:35.257Z,9.83
2019-03-12T19:33:06.639Z,8.10
2019-03-12T19:35:35.713Z,10.70
2019-03-12T19:38:04.682Z,14.45
2019-03-12T19:40:54.724Z,10.80
2019-03-12T19:43:23.689Z,14.18
2019-03-12T19:45:52.783Z,15.48
2019-03-12T19:48:21.741Z,15.10
2019-03-12T19:50:50.729Z,16.05
2019-03-12T19:53:21.155Z,14.75
2019-03-12T19:56:02.184Z,14.63
2019-03-12T19:58:31.256Z,13.60
2019-03-12T20:01:01.436Z,17.48
2019-03-12T20:03:32.033Z,14.85
2019-03-12T20:06:00.978Z,12.53
2019-03-12T20:08:29.960Z,12.37
2019-03-12T20:11:27.603Z,9.53
2019-03-12T20:14:32.639Z,16.73
2019-03-12T20:17:32.990Z,15.00
2019-03-12T20:20:24.727Z,13.35
2019-03-12T20:23:19.382Z,11.33
2019-03-12T20:26:16.949Z,17.40
2019-03-12T20:29:21.969Z,18.50
2019-03-12T20:32:23.403Z,13.13
2019-03-12T20:34:55.199Z,12.15
2019-03-12T20:37:46.789Z,11.80
2019-03-12T20:40:44.378Z,10.20
2019-03-12T20:43:39.711Z,9.88
2019-03-12T20:46:43.232Z,16.80
2019-03-12T20:49:27.382Z,11.57
2019-03-12T20:52:32.316Z,16.52
2019-03-12T20:55:12.693Z,13.58
2019-03-12T20:58:17.501Z,14.13
2019-03-12T21:01:16.368Z,15.53
2019-03-12T21:04:23.005Z,20.25
2019-03-12T21:07:29.449Z,16.10
2019-03-12T21:10:17.701Z,17.07
2019-03-12T21:13:10.216Z,19.90
2019-03-12T21:18:50.788Z,16.52
2019-03-12T21:21:34.554Z,13.30
2019-03-12T21:24:15.258Z,15.68
2019-03-12T21:26:52.783Z,15.90
2019-03-12T21:29:30.716Z,18.00
2019-03-12T21:31:59.526Z,16.07
2019-03-12T21:34:28.213Z,16.42
2019-03-12T21:36:56.875Z,15.95
2019-03-12T21:39:25.582Z,17.98
2019-03-12T21:41:54.214Z,13.93
2019-03-12T21:44:23.120Z,14.80
2019-03-12T21:46:51.786Z,17.75
2019-03-12T21:49:20.421Z,22.45
2019-03-12T21:51:49.243Z,16.80
2019-03-12T21:54:17.905Z,9.95
2019-03-12T21:56:46.594Z,13.35
2019-03-12T21:59:15.226Z,10.88
2019-03-12T22:01:43.866Z,10.85
2019-03-12T22:04:12.554Z,9.55
2019-03-12T22:06:41.230Z,10.68
2019-03-12T22:09:09.964Z,10.72
2019-03-12T22:11:38.598Z,8.80
2019-03-12T22:14:07.249Z,10.98
2019-03-12T22:16:35.932Z,11.43
2019-03-12T22:19:04.722Z,13.65
2019-03-12T22:21:44.139Z,11.20
2019-03-12T22:24:14.503Z,9.65
2019-03-12T22:26:43.297Z,11.73
2019-03-12T22:29:11.924Z,12.23
2019-03-12T22:31:40.705Z,9.88
2019-03-12T22:34:09.515Z,10.38
2019-03-12T22:36:38.275Z,9.35
2019-03-12T22:39:07.146Z,14.85
2019-03-12T22:41:35.820Z,11.20
2019-03-12T22:44:04.604Z,9.25
2019-03-12T22:46:33.266Z,11.57
2019-03-12T22:49:01.902Z,10.38
2019-03-12T22:51:30.698Z,10.63
2019-03-12T22:53:59.350Z,11.43
2019-03-12T22:56:28.013Z,10.15
2019-03-12T22:58:56.839Z,12.33
2019-03-12T23:01:25.634Z,11.38
2019-03-12T23:03:54.359Z,9.68
2019-03-12T23:06:23.165Z,12.37
2019-03-12T23:08:51.787Z,11.57
2019-03-12T23:11:20.631Z,8.90
2019-03-12T23:13:49.242Z,11.25
2019-03-12T23:16:17.928Z,9.78
2019-03-12T23:18:46.571Z,13.80
2019-03-12T23:21:15.251Z,9.50
2019-03-12T23:23:43.936Z,14.50
2019-03-12T23:26:12.575Z,9.95
2019-03-12T23:28:41.266Z,12.78
2019-03-12T23:31:09.906Z,8.53
2019-03-12T23:33:38.586Z,13.20
2019-03-12T23:36:07.258Z,13.80
2019-03-12T23:38:35.912Z,12.18
2019-03-12T23:41:04.681Z,13.28
2019-03-12T23:43:33.347Z,16.42
2019-03-12T23:46:02.031Z,11.35
2019-03-12T23:48:30.727Z,13.95
2019-03-12T23:50:59.482Z,10.20
2019-03-12T23:53:28.174Z,10.75
2019-03-12T23:55:56.828Z,14.90
2019-03-12T23:58:29.000Z,11.18
